Flight Track Log - Related Links

Times and Time Zones

All times are in EDT time to prevent confusion due to time zone crossing. See the VH-IGQ flight status page for this flight to view local times or setup timezone preferences in your user account.

Time Position Orientation Groundspeed Altitude Reporting Facility
EDT Latitude Longitude Course Direction KTS MPH feet Rate Location/Type
Sat 10:05:17 PM -35.1224 147.5984 64° Northeast 118 136 3,900  Level Aus ATC (RADAR)
Sat 10:05:32 PM -35.1187 147.6078 64° Northeast 121 139 4,000 600 Climbing Aus ATC (RADAR)
Sat 10:06:07 PM -35.1104 147.6297 65° Northeast 123 142 4,400 660 Climbing Aus ATC (RADAR)
Sat 10:07:12 PM -35.0917 147.6676 59° Northeast 119 137 5,100 600 Climbing Aus ATC (RADAR)
Sat 10:07:47 PM -35.0823 147.6883 61° Northeast 118 136 5,400 565 Climbing Aus ATC (RADAR)
Sat 10:08:37 PM -35.0690 147.7194 63° Northeast 123 142 5,900 635 Climbing Aus ATC (RADAR)
Sat 10:09:12 PM -35.0604 147.7419 65° Northeast 126 145 6,300 514 Climbing Aus ATC (RADAR)
Sat 10:10:22 PM -35.0412 147.7878 63° Northeast 133 153 6,800 494 Climbing Aus ATC (RADAR)
Sat 10:10:37 PM -35.0372 147.7981 65° Northeast 135 155 7,000 600 Climbing Aus ATC (RADAR)
Sat 10:11:12 PM -35.0281 147.8217 65° Northeast 131 151 7,300 519 Climbing Aus ATC (RADAR)
Sat 10:12:21 PM -35.0135 147.8717 70° East 135 155 7,900 404 Climbing Aus ATC (RADAR)
Sat 10:12:56 PM -35.0054 147.8969 69° East 135 155 8,000 253 Climbing Aus ATC (RADAR)
Sat 10:13:56 PM -34.9940 147.9435 73° East 144 166 8,300 379 Climbing Aus ATC (RADAR)
Sat 10:14:31 PM -34.9867 147.9712 72° East 145 167 8,600 505 Climbing Aus ATC (RADAR)
Sat 10:15:31 PM -34.9701 148.0173 66° East 151 174 9,100 240 Climbing Aus ATC (RADAR)
Sat 10:15:46 PM -34.9653 148.0298 65° Northeast 156 180 8,900 -120 Descending Aus ATC (RADAR)
Sat 10:16:21 PM -34.9535 148.0599 64° Northeast 167 192 9,000 60 Climbing Aus ATC (RADAR)
Sat 10:17:26 PM -34.9303 148.1183 64° Northeast 175 201 9,000  Level Aus ATC (RADAR)
Sat 10:18:01 PM -34.9172 148.1494 63° Northeast 173 199 9,000  Level Aus ATC (RADAR)
Sat 10:19:06 PM -34.8933 148.2060 63° Northeast 174 200 9,000  Level Aus ATC (RADAR)
Sat 10:19:41 PM -34.8796 148.2365 61° Northeast 174 200 9,000  Level Aus ATC (RADAR)
Sat 10:20:51 PM -34.8517 148.3015 62° Northeast 183 211 9,000  Level Aus ATC (RADAR)
Sat 10:21:06 PM -34.8460 148.3155 63° Northeast 184 212 9,000  Level Aus ATC (RADAR)
Sat 10:21:41 PM -34.8326 148.3475 63° Northeast 180 207 9,000  Level Aus ATC (RADAR)
Sat 10:22:41 PM -34.8084 148.4023 62° Northeast 181 208 9,000 -64 Level Aus ATC (RADAR)
Sat 10:23:15 PM -34.7945 148.4344 62° Northeast 181 208 8,900 -64 Descending Aus ATC (RADAR)
Sat 10:24:15 PM -34.7705 148.4897 62° Northeast 182 209 8,900 -63 Level Aus ATC (RADAR)
Sat 10:24:50 PM -34.7562 148.5214 61° Northeast 180 207 8,800 60 Descending Aus ATC (RADAR)
Sat 10:25:55 PM -34.7323 148.5822 65° Northeast 182 209 9,000 150 Climbing Aus ATC (RADAR)
Sat 10:26:10 PM -34.7271 148.5965 66° East 182 209 9,000  Level Aus ATC (RADAR)
Sat 10:26:40 PM -34.7171 148.6251 67° East 182 209 9,000  Level Aus ATC (RADAR)
Sat 10:27:40 PM -34.6964 148.6822 66° East 182 209 9,000  Level Aus ATC (RADAR)
Sat 10:28:20 PM -34.6807 148.7185 62° Northeast 179 206 9,000  Level Aus ATC (RADAR)
Sat 10:29:30 PM -34.6531 148.7827 62° Northeast 183 211 9,000 -96 Level Aus ATC (RADAR)
Sat 10:30:25 PM -34.6310 148.8329 62° Northeast 182 209 8,800 -126 Descending Aus ATC (RADAR)
Sat 10:31:05 PM -34.6152 148.8700 63° Northeast 184 212 8,800  Level Aus ATC (RADAR)
Sat 10:31:20 PM -34.6091 148.8836 61° Northeast 183 211 8,800 120 Level Aus ATC (RADAR)
Sat 10:31:55 PM -34.5954 148.9157 63° Northeast 180 207 8,900 133 Climbing Aus ATC (RADAR)
Sat 10:32:50 PM -34.5738 148.9654 62° Northeast 179 206 9,000 71 Climbing Aus ATC (RADAR)
Sat 10:33:20 PM -34.5615 148.9922 61° Northeast 178 205 9,000 -48 Level Aus ATC (RADAR)
Sat 10:34:54 PM -34.5240 149.0790 62° Northeast 182 209 8,900 -34 Descending Aus ATC (RADAR)
Sat 10:36:15 PM -34.4919 149.1520 62° Northeast 180 207 8,900 46 Level Aus ATC (RADAR)
Sat 10:37:04 PM -34.4721 149.1979 62° Northeast 182 209 9,000 55 Climbing Aus ATC (RADAR)
Sat 10:38:04 PM -34.4474 149.2521 61° Northeast 181 208 9,000 -63 Level Aus ATC (RADAR)
Sat 10:38:39 PM -34.4336 149.2843 63° Northeast 181 208 8,900 -63 Descending Aus ATC (RADAR)
Sat 10:39:39 PM -34.4099 149.3386 62° Northeast 180 207 8,900  Level Aus ATC (RADAR)
Sat 10:40:34 PM -34.3874 149.3880 61° Northeast 180 207 8,900  Level Aus ATC (RADAR)
Sat 10:41:14 PM -34.3712 149.4245 62° Northeast 183 211 8,900  Level Aus ATC (RADAR)
Sat 10:41:29 PM -34.3655 149.4390 65° Northeast 184 212 8,900  Level Aus ATC (RADAR)
Sat 10:42:04 PM -34.3512 149.4703 61° Northeast 179 206 8,900 126 Level Aus ATC (RADAR)
Sat 10:43:04 PM -34.3270 149.5253 62° Northeast 182 209 9,100 63 Climbing Aus ATC (RADAR)
Sat 10:43:39 PM -34.3125 149.5567 61° Northeast 180 207 9,000 -67 Descending Aus ATC (RADAR)
Sat 10:44:33 PM -34.2899 149.6070 61° Northeast 182 209 9,000 -67 Level Aus ATC (RADAR)
Sat 10:45:08 PM -34.2759 149.6397 63° Northeast 184 212 8,900 -126 Descending Aus ATC (RADAR)
Sat 10:46:08 PM -34.2505 149.6962 61° Northeast 186 214 8,800  Descending Aus ATC (RADAR)
Sat 10:46:23 PM -34.2444 149.7102 62° Northeast 186 214 8,900 120 Climbing Aus ATC (RADAR)
Sat 10:46:58 PM -34.2299 149.7428 62° Northeast 184 212 8,900  Level Aus ATC (RADAR)
Sat 10:47:53 PM -34.2072 149.7931 61° Northeast 181 208 8,900  Level Aus ATC (RADAR)
Sat 10:48:28 PM -34.1925 149.8256 61° Northeast 186 214 8,900 -67 Level Aus ATC (RADAR)
Sat 10:49:23 PM -34.1698 149.8762 62° Northeast 183 211 8,800 -67 Descending Aus ATC (RADAR)
Sat 10:49:58 PM -34.1554 149.9088 62° Northeast 185 213 8,800 55 Level Aus ATC (RADAR)
Sat 10:51:13 PM -34.1245 149.9777 62° Northeast 183 211 8,900 67 Climbing Aus ATC (RADAR)
Sat 10:51:28 PM -34.1186 149.9914 63° Northeast 182 209 8,900  Level Aus ATC (RADAR)
Sat 10:52:03 PM -34.1039 150.0226 60° Northeast 181 208 8,900  Level Aus ATC (RADAR)
Sat 10:53:18 PM -34.0742 150.0896 62° Northeast 177 204 8,900 52 Level Aus ATC (RADAR)
Sat 10:53:58 PM -34.0579 150.1248 61° Northeast 178 205 9,000  Climbing Aus ATC (RADAR)
Sat 10:54:47 PM -34.0383 150.1689 62° Northeast 173 199 8,900 -143 Descending Aus ATC (RADAR)
Sat 10:55:22 PM -34.0242 150.1999 61° Northeast 177 204 8,800 -60 Descending Aus ATC (RADAR)
Sat 10:56:27 PM -33.9987 150.2554 61° Northeast 172 198 8,800  Level Aus ATC (RADAR)
Sat 10:56:42 PM -33.9925 150.2685 60° Northeast 175 201 8,800 -240 Level Aus ATC (RADAR)
Sat 10:57:17 PM -33.9797 150.3008 64° Northeast 179 206 8,600 -600 Descending Aus ATC (RADAR)
Sat 10:58:22 PM -33.9507 150.3602 60° Northeast 188 216 7,800 -720 Descending Aus ATC (RADAR)
Sat 10:58:57 PM -33.9367 150.3952 64° Northeast 191 220 7,400 -600 Descending Aus ATC (RADAR)
Sat 10:59:52 PM -33.9318 150.4505 84° East 184 212 6,900 -733 Descending Aus ATC (RADAR)
Sat 11:00:27 PM -33.9345 150.4871 95° East 182 209 6,300 -960 Descending Aus ATC (RADAR)
Sat 11:01:32 PM -33.9344 150.5558 90° East 183 211 5,300 -900 Descending Aus ATC (RADAR)
Sat 11:01:47 PM -33.9337 150.5716 87° East 183 211 5,100 -873 Descending Aus ATC (RADAR)
Sat 11:02:27 PM -33.9337 150.6143 90° East 184 212 4,500 -988 Descending Aus ATC (RADAR)
Sat 11:03:12 PM -33.9337 150.6622 90° East 182 209 3,700 -975 Descending Aus ATC (RADAR)
Sat 11:03:47 PM -33.9337 150.6997 90° East 186 214 3,200 -655 Descending Aus ATC (RADAR)
Sat 11:05:02 PM -33.9351 150.7754 91° East 173 199 2,500 -440 Descending Aus ATC (RADAR)
Sat 11:05:36 PM -33.9364 150.8087 93° East 166 191 2,400 -424 Descending Aus ATC (RADAR)
Sat 11:06:41 PM -33.9403 150.8653 95° East 150 173 1,800 -600 Descending Aus ATC (RADAR)
Sat 11:06:56 PM -33.9414 150.8779 96° East 147 169 1,600 -360 Descending Aus ATC (RADAR)
Sat 11:07:31 PM -33.9344 150.9040 72° East 138 159 1,500 -60 Descending Aus ATC (RADAR)
Sat 11:08:36 PM -33.9191 150.9457 66° East 125 144 1,500  Level Aus ATC (RADAR)
Sat 11:09:11 PM -33.9113 150.9696 69° East 128 147 1,500 -253 Level Aus ATC (RADAR)
Sat 11:10:11 PM -33.9089 151.0047 85° East 118 136 1,100 -400 Descending Aus ATC (RADAR)

Login

Don't have an account? Register now (free) for customized features, flight alerts, and more!